createdAt,value
2022-09-13T00:01:47.697Z,18.27
2022-09-13T00:04:49.171Z,18.22
2022-09-13T00:07:50.736Z,18.16
2022-09-13T00:10:52.134Z,18.14
2022-09-13T00:13:54.383Z,18.11
2022-09-13T00:16:55.761Z,18.05
2022-09-13T00:19:57.230Z,18.10
2022-09-13T00:22:58.596Z,18.03
2022-09-13T00:26:09.282Z,17.99
2022-09-13T00:29:10.641Z,17.96
2022-09-13T00:32:12.326Z,17.97
2022-09-13T00:35:13.722Z,17.98
2022-09-13T00:38:15.106Z,17.93
2022-09-13T00:41:18.646Z,17.91
2022-09-13T00:44:56.044Z,17.87
2022-09-13T00:48:03.085Z,17.81
2022-09-13T00:51:07.177Z,17.75
2022-09-13T00:54:09.584Z,17.73
2022-09-13T00:57:13.984Z,17.68
2022-09-13T01:00:19.284Z,17.63
2022-09-13T01:03:23.748Z,17.61
2022-09-13T01:06:32.940Z,17.63
2022-09-13T01:09:38.132Z,17.59
2022-09-13T01:12:48.363Z,17.53
2022-09-13T01:15:49.999Z,17.45
2022-09-13T01:18:51.369Z,17.42
2022-09-13T01:21:58.764Z,17.33
2022-09-13T01:25:28.227Z,17.35
2022-09-13T01:28:41.288Z,17.27
2022-09-13T01:31:50.093Z,17.23
2022-09-13T01:35:06.331Z,17.24
2022-09-13T01:38:15.042Z,17.20
2022-09-13T01:41:32.695Z,17.15
2022-09-13T01:44:55.147Z,17.13
2022-09-13T01:48:02.901Z,17.05
2022-09-13T01:51:13.465Z,16.99
2022-09-13T01:54:45.358Z,16.98
2022-09-13T01:58:11.401Z,17.00
2022-09-13T02:01:18.419Z,16.95
2022-09-13T02:04:24.429Z,16.88
2022-09-13T02:07:40.749Z,16.93
2022-09-13T02:10:48.482Z,16.90
2022-09-13T02:14:07.217Z,16.91
2022-09-13T02:17:13.514Z,16.79
2022-09-13T02:20:25.806Z,16.68
2022-09-13T02:23:37.860Z,16.65
2022-09-13T02:26:41.737Z,16.63
2022-09-13T02:29:47.306Z,16.62
2022-09-13T02:32:52.614Z,16.60
2022-09-13T02:36:04.341Z,16.55
2022-09-13T02:39:13.054Z,16.59
2022-09-13T02:42:19.659Z,16.58
2022-09-13T02:45:25.874Z,16.54
2022-09-13T02:48:56.477Z,16.57
2022-09-13T02:52:04.991Z,16.60
2022-09-13T02:55:38.163Z,16.61
2022-09-13T02:59:13.325Z,16.64
2022-09-13T03:02:19.156Z,16.60
2022-09-13T03:05:20.596Z,16.61
2022-09-13T03:08:23.315Z,16.61
2022-09-13T03:11:49.402Z,16.60
2022-09-13T03:15:18.732Z,16.60
2022-09-13T03:18:48.261Z,16.58
2022-09-13T03:22:15.753Z,16.57
2022-09-13T03:25:39.430Z,16.57
2022-09-13T03:28:54.873Z,16.55
2022-09-13T03:32:03.239Z,16.53
2022-09-13T03:35:22.709Z,16.54
2022-09-13T03:38:38.284Z,16.50
2022-09-13T03:41:46.520Z,16.44
2022-09-13T03:44:50.519Z,16.38
2022-09-13T03:47:52.411Z,16.33
2022-09-13T03:50:54.244Z,16.24
2022-09-13T03:54:00.579Z,16.20
2022-09-13T03:57:22.314Z,16.09
2022-09-13T04:00:24.111Z,16.02
2022-09-13T04:03:27.336Z,15.97
2022-09-13T04:06:28.717Z,15.95
2022-09-13T04:09:31.407Z,15.90
2022-09-13T04:12:32.776Z,15.84
2022-09-13T04:15:34.156Z,15.80
2022-09-13T04:18:35.613Z,15.77
2022-09-13T04:21:38.068Z,15.79
2022-09-13T04:24:39.919Z,15.82
2022-09-13T04:27:41.367Z,15.80
2022-09-13T04:30:46.858Z,15.81
2022-09-13T04:33:49.448Z,15.86
2022-09-13T04:36:52.400Z,15.85
2022-09-13T04:39:53.820Z,15.85
2022-09-13T04:42:55.219Z,15.82
2022-09-13T04:46:00.988Z,15.81
2022-09-13T04:49:03.111Z,15.89
2022-09-13T04:52:04.474Z,15.96
2022-09-13T04:55:06.812Z,16.00
2022-09-13T04:58:08.193Z,16.04
2022-09-13T05:01:10.693Z,16.03
2022-09-13T05:04:12.419Z,16.07
2022-09-13T05:07:13.786Z,16.05
2022-09-13T05:10:19.431Z,16.08
2022-09-13T05:13:21.125Z,16.03
2022-09-13T05:16:33.197Z,15.98
2022-09-13T05:19:34.993Z,15.99
2022-09-13T05:22:36.359Z,16.00
2022-09-13T05:25:37.737Z,15.97
2022-09-13T05:28:39.151Z,15.99
2022-09-13T05:31:42.209Z,16.00
2022-09-13T05:34:44.337Z,16.04
2022-09-13T05:37:45.780Z,16.01
2022-09-13T05:40:47.572Z,15.97
2022-09-13T05:43:49.129Z,16.01
2022-09-13T05:46:50.487Z,15.98
2022-09-13T05:50:09.380Z,16.01
2022-09-13T05:53:12.025Z,16.03
2022-09-13T05:56:16.912Z,16.11
2022-09-13T05:59:18.339Z,16.09
2022-09-13T06:02:19.743Z,16.11
2022-09-13T06:05:21.182Z,16.12
2022-09-13T06:08:24.096Z,16.19
2022-09-13T06:11:26.678Z,16.22
2022-09-13T06:14:28.104Z,16.31
2022-09-13T06:17:29.464Z,16.35
2022-09-13T06:20:30.977Z,16.41
2022-09-13T06:23:32.349Z,16.52
2022-09-13T06:26:33.801Z,16.52
2022-09-13T06:29:35.163Z,16.59
2022-09-13T06:32:36.528Z,16.64
2022-09-13T06:35:37.945Z,16.73
2022-09-13T06:38:39.351Z,16.81
2022-09-13T06:41:40.945Z,16.83
2022-09-13T06:44:42.315Z,16.88
2022-09-13T06:47:43.679Z,16.90
2022-09-13T06:50:45.735Z,16.92
2022-09-13T06:53:48.437Z,17.02
2022-09-13T06:56:49.870Z,17.05
2022-09-13T06:59:51.363Z,17.06
2022-09-13T07:02:52.786Z,17.07
2022-09-13T07:05:54.177Z,17.13
2022-09-13T07:08:57.220Z,17.15
2022-09-13T07:11:58.608Z,17.23
2022-09-13T07:14:59.970Z,17.30
2022-09-13T07:18:01.409Z,17.35
2022-09-13T07:21:08.346Z,17.39
2022-09-13T07:24:10.418Z,17.44
2022-09-13T07:27:12.784Z,17.53
2022-09-13T07:30:14.523Z,17.55
2022-09-13T07:33:16.405Z,17.60
2022-09-13T07:36:17.791Z,17.66
2022-09-13T07:39:22.279Z,17.75
2022-09-13T07:42:23.978Z,17.86
2022-09-13T07:45:25.451Z,17.94
2022-09-13T07:48:33.255Z,17.99
2022-09-13T07:51:36.942Z,18.05
2022-09-13T07:54:38.347Z,18.17
2022-09-13T07:57:39.719Z,18.34
2022-09-13T08:00:41.080Z,18.45
2022-09-13T08:03:42.711Z,18.49
2022-09-13T08:06:44.686Z,18.54
2022-09-13T08:09:46.191Z,18.56
2022-09-13T08:12:50.270Z,18.51
2022-09-13T08:15:51.734Z,18.62
2022-09-13T08:18:55.030Z,18.64
2022-09-13T08:21:56.419Z,18.74
2022-09-13T08:24:57.798Z,18.78
2022-09-13T08:27:59.229Z,18.85
2022-09-13T08:31:11.658Z,18.96
2022-09-13T08:34:15.067Z,19.01
2022-09-13T08:37:16.483Z,18.99
2022-09-13T08:40:17.978Z,19.06
2022-09-13T08:43:48.611Z,19.16
2022-09-13T08:46:50.977Z,19.34
2022-09-13T08:50:00.042Z,19.52
2022-09-13T08:53:26.332Z,19.90
2022-09-13T08:56:50.952Z,20.32
2022-09-13T09:00:07.908Z,20.45
2022-09-13T09:03:38.437Z,20.44
2022-09-13T09:06:40.093Z,20.44
2022-09-13T09:09:53.735Z,20.71
2022-09-13T09:12:59.521Z,21.02
2022-09-13T09:16:30.422Z,21.19
2022-09-13T09:19:36.309Z,21.17
2022-09-13T09:22:37.807Z,21.06
2022-09-13T09:25:39.440Z,21.06
2022-09-13T09:28:40.822Z,21.22
2022-09-13T09:32:03.275Z,21.24
2022-09-13T09:35:16.000Z,21.33
2022-09-13T09:38:23.170Z,21.45
2022-09-13T09:41:31.527Z,21.51
2022-09-13T09:44:34.447Z,21.62
2022-09-13T09:47:46.012Z,21.80
2022-09-13T09:50:51.776Z,21.98
2022-09-13T09:54:01.889Z,22.00
2022-09-13T09:57:03.562Z,22.04
2022-09-13T10:00:12.610Z,22.07
2022-09-13T10:03:19.784Z,22.20
2022-09-13T10:06:27.624Z,22.13
2022-09-13T10:09:29.054Z,22.04
2022-09-13T10:12:34.206Z,22.20
2022-09-13T10:15:35.791Z,22.36
2022-09-13T10:18:44.558Z,22.33
2022-09-13T10:22:00.045Z,22.24
2022-09-13T10:25:29.657Z,22.32
2022-09-13T10:28:34.845Z,22.31
2022-09-13T10:31:44.057Z,22.36
2022-09-13T10:34:46.544Z,22.43
2022-09-13T10:37:48.045Z,22.46
2022-09-13T10:40:49.434Z,22.47
2022-09-13T10:44:09.608Z,22.61
2022-09-13T10:47:19.783Z,22.54
2022-09-13T10:50:24.605Z,22.56
2022-09-13T10:53:41.200Z,22.73
2022-09-13T10:56:46.078Z,22.81
2022-09-13T10:59:54.625Z,22.88
2022-09-13T11:03:13.400Z,22.91
2022-09-13T11:06:33.062Z,23.06
2022-09-13T11:09:37.961Z,23.09
2022-09-13T11:12:46.424Z,23.04
2022-09-13T11:15:57.775Z,23.23
2022-09-13T11:19:14.693Z,23.28
2022-09-13T11:22:25.406Z,23.03
2022-09-13T11:25:40.308Z,22.98
2022-09-13T11:29:00.329Z,22.91
2022-09-13T11:32:07.546Z,22.87
2022-09-13T11:35:27.781Z,22.87
2022-09-13T11:38:49.614Z,22.88
2022-09-13T11:42:01.061Z,23.05
2022-09-13T11:45:23.993Z,23.07
2022-09-13T11:48:33.161Z,23.20
2022-09-13T11:51:57.884Z,23.28
2022-09-13T11:54:59.230Z,23.41
2022-09-13T11:58:15.460Z,23.68
2022-09-13T12:01:27.498Z,23.95
2022-09-13T12:04:38.642Z,23.98
2022-09-13T12:07:51.405Z,23.98
2022-09-13T12:11:18.843Z,23.92
2022-09-13T12:14:25.565Z,24.09
2022-09-13T12:17:40.352Z,24.19
2022-09-13T12:20:58.854Z,24.31
2022-09-13T12:24:00.173Z,24.46
2022-09-13T12:27:11.791Z,24.74
2022-09-13T12:30:17.400Z,24.83
2022-09-13T12:33:19.715Z,24.72
2022-09-13T12:36:39.429Z,24.62
2022-09-13T12:40:09.606Z,24.69
2022-09-13T12:43:14.006Z,24.63
2022-09-13T12:46:26.827Z,24.63
2022-09-13T12:49:33.949Z,24.54
2022-09-13T12:52:52.018Z,24.49
2022-09-13T12:56:31.861Z,24.47
2022-09-13T13:00:07.956Z,24.48
2022-09-13T13:03:11.862Z,24.49
2022-09-13T13:06:35.157Z,24.45
2022-09-13T13:09:42.405Z,24.48
2022-09-13T13:12:43.844Z,24.59
2022-09-13T13:15:49.749Z,24.68
2022-09-13T13:18:54.124Z,24.77
2022-09-13T13:21:55.640Z,24.85
2022-09-13T13:24:57.146Z,24.97
2022-09-13T13:27:59.083Z,25.27
2022-09-13T13:31:00.703Z,25.57
2022-09-13T13:34:14.320Z,25.65
2022-09-13T13:37:15.637Z,25.71
2022-09-13T13:40:21.599Z,25.70
2022-09-13T13:43:32.113Z,25.81
2022-09-13T13:46:33.629Z,25.79
2022-09-13T13:49:40.978Z,25.76
2022-09-13T13:52:48.654Z,25.68
2022-09-13T13:56:07.569Z,25.72
2022-09-13T13:59:16.346Z,25.79
2022-09-13T14:02:26.054Z,25.80
2022-09-13T14:05:49.931Z,25.74
2022-09-13T14:09:15.763Z,25.67
2022-09-13T14:12:36.976Z,25.67
2022-09-13T14:15:48.175Z,25.75
2022-09-13T14:19:17.442Z,25.86
2022-09-13T14:22:26.523Z,25.90
2022-09-13T14:25:28.452Z,25.91
2022-09-13T14:28:32.183Z,25.86
2022-09-13T14:31:33.806Z,25.85
2022-09-13T14:34:38.666Z,25.84
2022-09-13T14:37:40.304Z,25.88
2022-09-13T14:40:41.778Z,25.83
2022-09-13T14:43:45.231Z,25.87
2022-09-13T14:46:54.444Z,25.93
2022-09-13T14:50:22.249Z,25.90
2022-09-13T14:53:34.182Z,25.93
2022-09-13T14:56:45.268Z,25.96
2022-09-13T14:59:50.112Z,25.93
2022-09-13T15:02:54.533Z,26.01
2022-09-13T15:05:58.505Z,25.95
2022-09-13T15:09:12.199Z,25.83
2022-09-13T15:12:28.222Z,25.74
2022-09-13T15:15:36.171Z,25.68
2022-09-13T15:18:37.589Z,25.66
2022-09-13T15:21:39.033Z,25.62
2022-09-13T15:24:46.280Z,25.63
2022-09-13T15:27:48.744Z,25.62
2022-09-13T15:30:51.519Z,25.56
2022-09-13T15:34:17.927Z,25.58
2022-09-13T15:37:29.361Z,25.65
2022-09-13T15:40:42.888Z,25.66
2022-09-13T15:43:44.974Z,25.68
2022-09-13T15:47:10.971Z,25.68
2022-09-13T15:50:20.856Z,25.69
2022-09-13T15:53:22.234Z,25.64
2022-09-13T15:56:35.395Z,25.67
2022-09-13T15:59:36.772Z,25.65
2022-09-13T16:02:38.204Z,25.70
2022-09-13T16:05:41.922Z,25.71
2022-09-13T16:08:43.347Z,25.67
2022-09-13T16:11:46.102Z,25.58
2022-09-13T16:14:47.624Z,25.51
2022-09-13T16:17:49.051Z,25.46
2022-09-13T16:20:50.945Z,25.36
2022-09-13T16:23:52.303Z,25.25
2022-09-13T16:26:53.849Z,25.17
2022-09-13T16:29:55.220Z,25.17
2022-09-13T16:32:56.727Z,25.14
2022-09-13T16:36:02.161Z,25.08
2022-09-13T16:39:04.754Z,25.02
2022-09-13T16:42:06.594Z,24.96
2022-09-13T16:45:10.220Z,24.93
2022-09-13T16:48:12.017Z,24.90
2022-09-13T16:51:13.414Z,24.84
2022-09-13T16:54:14.825Z,24.79
2022-09-13T16:57:16.280Z,24.74
2022-09-13T17:00:19.961Z,24.70
2022-09-13T17:03:21.506Z,24.67
2022-09-13T17:06:24.535Z,24.63
2022-09-13T17:09:30.793Z,24.62
2022-09-13T17:12:32.945Z,24.59
2022-09-13T17:15:39.090Z,24.52
2022-09-13T17:18:40.689Z,24.45
2022-09-13T17:21:42.818Z,24.38
2022-09-13T17:24:44.648Z,24.32
2022-09-13T17:27:46.034Z,24.29
2022-09-13T17:30:47.468Z,24.22
2022-09-13T17:33:49.875Z,24.19
2022-09-13T17:36:52.248Z,24.14
2022-09-13T17:39:53.694Z,24.05
2022-09-13T17:42:55.406Z,23.97
2022-09-13T17:45:57.357Z,23.91
2022-09-13T17:48:59.812Z,23.79
2022-09-13T17:52:02.112Z,23.71
2022-09-13T17:55:04.640Z,23.65
2022-09-13T17:58:06.025Z,23.57
2022-09-13T18:01:09.538Z,23.53
2022-09-13T18:04:12.361Z,23.43
2022-09-13T18:07:13.780Z,23.39
2022-09-13T18:10:32.568Z,23.31
2022-09-13T18:13:37.416Z,23.25
2022-09-13T18:16:38.884Z,23.20
2022-09-13T18:19:46.298Z,23.14
2022-09-13T18:22:48.272Z,23.09
2022-09-13T18:26:03.015Z,23.07
2022-09-13T18:29:09.544Z,23.08
2022-09-13T18:32:10.969Z,23.05
2022-09-13T18:35:12.339Z,23.05
2022-09-13T18:38:13.833Z,23.04
2022-09-13T18:41:18.062Z,23.01
2022-09-13T18:44:19.646Z,22.91
2022-09-13T18:47:21.103Z,22.79
2022-09-13T18:50:22.463Z,22.64
2022-09-13T18:53:34.130Z,22.63
2022-09-13T18:56:36.538Z,22.67
2022-09-13T18:59:37.905Z,22.65
2022-09-13T19:02:56.590Z,22.62
2022-09-13T19:06:20.089Z,22.58
2022-09-13T19:09:22.777Z,22.51
2022-09-13T19:12:24.303Z,22.37
2022-09-13T19:15:25.817Z,22.20
2022-09-13T19:18:28.197Z,22.06
2022-09-13T19:21:31.685Z,22.10
2022-09-13T19:24:33.721Z,22.12
2022-09-13T19:27:35.125Z,22.12
2022-09-13T19:30:36.534Z,22.16
2022-09-13T19:33:39.538Z,22.13
2022-09-13T19:36:42.895Z,22.07
2022-09-13T19:39:45.512Z,22.05
2022-09-13T19:42:46.985Z,22.01
2022-09-13T19:46:05.186Z,22.07
2022-09-13T19:49:08.349Z,22.07
2022-09-13T19:52:09.831Z,22.08
2022-09-13T19:55:11.266Z,22.01
2022-09-13T19:58:13.856Z,22.01
2022-09-13T20:01:21.103Z,21.98
2022-09-13T20:04:23.598Z,22.01
2022-09-13T20:07:25.277Z,21.87
2022-09-13T20:10:27.268Z,21.70
2022-09-13T20:13:28.624Z,21.76
2022-09-13T20:16:33.673Z,21.85
2022-09-13T20:19:46.412Z,21.85
2022-09-13T20:22:51.011Z,21.79
2022-09-13T20:25:52.647Z,21.70
2022-09-13T20:28:59.958Z,21.56
2022-09-13T20:32:02.186Z,21.59
2022-09-13T20:35:03.865Z,21.60
2022-09-13T20:38:05.523Z,21.61
2022-09-13T20:41:10.450Z,21.56
2022-09-13T20:44:12.092Z,21.57
2022-09-13T20:47:13.466Z,21.58
2022-09-13T20:50:15.224Z,21.52
2022-09-13T20:53:16.589Z,21.47
2022-09-13T20:56:18.653Z,21.38
2022-09-13T20:59:21.208Z,21.36
2022-09-13T21:02:22.605Z,21.37
2022-09-13T21:05:24.140Z,21.35
2022-09-13T21:08:43.859Z,21.34
2022-09-13T21:11:45.326Z,21.21
2022-09-13T21:14:46.745Z,21.11
2022-09-13T21:17:48.121Z,21.04
2022-09-13T21:21:00.483Z,21.01
2022-09-13T21:24:04.252Z,21.01
2022-09-13T21:27:06.833Z,21.02
2022-09-13T21:30:08.671Z,21.03
2022-09-13T21:33:10.316Z,21.04
2022-09-13T21:36:13.010Z,21.02
2022-09-13T21:39:16.267Z,21.02
2022-09-13T21:42:17.737Z,21.01
2022-09-13T21:45:19.105Z,21.02
2022-09-13T21:48:22.150Z,20.95
2022-09-13T21:51:35.210Z,20.83
2022-09-13T21:54:36.665Z,20.85
2022-09-13T21:57:38.033Z,20.89
2022-09-13T22:00:39.518Z,20.91
2022-09-13T22:03:43.750Z,20.87
2022-09-13T22:06:46.932Z,20.89
2022-09-13T22:09:48.283Z,20.92
2022-09-13T22:12:49.646Z,20.92
2022-09-13T22:15:51.033Z,20.93
2022-09-13T22:18:55.671Z,20.92
2022-09-13T22:21:59.191Z,20.89
2022-09-13T22:25:00.903Z,20.91
2022-09-13T22:28:02.543Z,20.88
2022-09-13T22:31:19.008Z,20.93
2022-09-13T22:34:23.909Z,20.94
2022-09-13T22:37:25.321Z,20.93
2022-09-13T22:40:27.509Z,20.93
2022-09-13T22:43:29.019Z,20.90
2022-09-13T22:46:34.299Z,20.84
2022-09-13T22:49:35.675Z,20.77
2022-09-13T22:52:37.051Z,20.79
2022-09-13T22:55:38.409Z,20.83
2022-09-13T22:58:40.448Z,20.80
2022-09-13T23:01:42.064Z,20.82
2022-09-13T23:04:43.489Z,20.80
2022-09-13T23:07:44.858Z,20.84
2022-09-13T23:10:46.786Z,20.87
2022-09-13T23:13:49.963Z,20.90
2022-09-13T23:16:52.229Z,20.96
2022-09-13T23:19:53.676Z,20.95
2022-09-13T23:22:55.027Z,21.01
2022-09-13T23:26:06.436Z,21.01
2022-09-13T23:29:15.369Z,20.99
2022-09-13T23:32:16.938Z,20.93
2022-09-13T23:35:18.430Z,20.90
2022-09-13T23:38:19.865Z,20.96
2022-09-13T23:41:22.285Z,21.02
2022-09-13T23:44:24.185Z,21.03
2022-09-13T23:47:25.563Z,20.94
2022-09-13T23:50:26.927Z,20.87
2022-09-13T23:53:28.606Z,20.80
2022-09-13T23:56:31.237Z,20.59
2022-09-13T23:59:32.823Z,20.36
